X  Close Metar Aviation Weather Data     CYYC Calgary International Airport
Temperature
2°C Temperature
-6°C Dewpoint
56% Humidity



Wind
14 KM/H
9 MPH
4 M/S
8 KTS



290°
WNW
Current Conditions

Mostly Cloudy Mostly Cloudy
Pressure 988.82 (hPa) - 29.2 (inHg)
Visibility 14.9 (mile) - 24 (km)
Airport
Airport-code CYYC

Location: Calgary International Airport
Distance: 4 (km)

Metar:
CYYC 081200Z 29008KT 15SM BKN240 02/M06 A2920 RMK CI5 SLP929 DENSITY ALT 3800FT

Time: 08-12-2021 05:00 MST